createdAt,value
2022-08-22T00:01:54.047Z,16.87
2022-08-22T00:02:45.269Z,18.93
2022-08-22T00:03:03.073Z,16.93
2022-08-22T00:04:43.057Z,16.79
2022-08-22T00:07:53.417Z,16.90
2022-08-22T00:10:42.640Z,16.83
2022-08-22T00:13:20.100Z,16.85
2022-08-22T00:16:16.915Z,16.95
2022-08-22T00:18:49.117Z,16.88
2022-08-22T00:21:47.781Z,16.82
2022-08-22T00:24:56.846Z,16.82
2022-08-22T00:27:31.640Z,16.74
2022-08-22T00:30:05.413Z,16.67
2022-08-22T00:32:42.482Z,16.69
2022-08-22T00:35:48.176Z,16.75
2022-08-22T00:41:09.216Z,16.67
2022-08-22T00:44:17.132Z,16.61
2022-08-22T00:46:54.196Z,16.54
2022-08-22T00:49:32.554Z,16.57
2022-08-22T00:52:36.729Z,16.65
2022-08-22T00:55:20.760Z,16.40
2022-08-22T00:57:52.627Z,16.51
2022-08-22T01:00:30.040Z,16.42
2022-08-22T01:03:19.244Z,16.33
2022-08-22T01:06:02.816Z,16.25
2022-08-22T01:08:56.484Z,16.19
2022-08-22T01:12:00.454Z,16.21
2022-08-22T01:14:38.534Z,16.06
2022-08-22T01:17:25.030Z,16.05
2022-08-22T01:20:28.832Z,16.07
2022-08-22T01:23:07.378Z,15.97
2022-08-22T01:25:55.629Z,15.88
2022-08-22T01:28:47.075Z,15.77
2022-08-22T01:31:51.251Z,15.72
2022-08-22T01:34:43.739Z,15.67
2022-08-22T01:37:22.450Z,15.63
2022-08-22T01:40:32.164Z,15.66
2022-08-22T01:43:10.151Z,15.52
2022-08-22T01:46:02.928Z,15.52
2022-08-22T01:48:48.025Z,15.50
2022-08-22T01:51:26.920Z,15.39
2022-08-22T01:53:57.927Z,15.43
2022-08-22T01:56:31.384Z,15.47
2022-08-22T01:59:01.918Z,15.39
2022-08-22T02:01:34.246Z,15.26
2022-08-22T02:04:09.611Z,15.18
2022-08-22T02:06:50.177Z,15.17
2022-08-22T02:09:31.518Z,15.15
2022-08-22T02:12:21.622Z,15.05
2022-08-22T02:15:12.490Z,15.02
2022-08-22T02:18:10.016Z,14.98
2022-08-22T02:20:48.712Z,14.90
2022-08-22T02:23:33.053Z,14.98
2022-08-22T02:26:02.246Z,15.04
2022-08-22T02:28:57.275Z,15.05
2022-08-22T02:31:45.138Z,15.01
2022-08-22T02:34:20.581Z,14.94
2022-08-22T02:37:02.826Z,14.88
2022-08-22T02:39:55.584Z,14.83
2022-08-22T02:42:28.753Z,14.82
2022-08-22T02:45:37.148Z,14.87
2022-08-22T02:48:45.029Z,14.97
2022-08-22T02:51:30.109Z,14.90
2022-08-22T02:54:08.131Z,14.84
2022-08-22T02:56:53.406Z,14.84
2022-08-22T03:00:31.270Z,14.75
2022-08-22T03:02:58.784Z,14.73
2022-08-22T03:05:41.099Z,14.67
2022-08-22T03:08:22.871Z,14.57
2022-08-22T03:11:17.135Z,14.73
2022-08-22T03:14:02.227Z,14.71
2022-08-22T03:17:04.160Z,14.63
2022-08-22T03:20:10.842Z,14.57
2022-08-22T03:22:59.817Z,14.48
2022-08-22T03:25:36.964Z,14.50
2022-08-22T03:28:10.529Z,14.51
2022-08-22T03:30:42.641Z,14.49
2022-08-22T03:33:19.678Z,14.44
2022-08-22T03:35:46.073Z,14.34
2022-08-22T03:38:46.820Z,14.35
2022-08-22T03:41:41.172Z,14.32
2022-08-22T03:44:26.285Z,14.34
2022-08-22T03:47:40.696Z,14.32
2022-08-22T03:50:58.733Z,14.24
2022-08-22T03:54:04.405Z,14.20
2022-08-22T03:56:40.020Z,14.22
2022-08-22T03:59:12.599Z,14.18
2022-08-22T04:02:33.361Z,14.22
2022-08-22T04:05:25.594Z,14.25
2022-08-22T04:08:13.729Z,14.19
2022-08-22T04:10:59.163Z,14.26
2022-08-22T04:13:54.311Z,14.27
2022-08-22T04:16:48.664Z,14.29
2022-08-22T04:19:33.488Z,14.30
2022-08-22T04:22:05.908Z,14.23
2022-08-22T04:24:41.299Z,14.27
2022-08-22T04:27:29.694Z,14.28
2022-08-22T04:30:02.775Z,14.24
2022-08-22T04:32:37.065Z,14.34
2022-08-22T04:35:27.400Z,14.40
2022-08-22T04:38:22.087Z,14.36
2022-08-22T04:40:55.136Z,14.32
2022-08-22T04:43:31.623Z,14.32
2022-08-22T04:46:36.790Z,14.30
2022-08-22T04:49:26.571Z,14.35
2022-08-22T04:52:15.787Z,14.42
2022-08-22T04:55:06.466Z,14.46
2022-08-22T04:57:51.370Z,14.52
2022-08-22T05:00:17.865Z,14.50
2022-08-22T05:02:50.210Z,14.55
2022-08-22T05:05:25.334Z,14.62
2022-08-22T05:07:59.616Z,14.62
2022-08-22T05:10:28.700Z,14.61
2022-08-22T05:13:01.262Z,14.68
2022-08-22T05:15:33.399Z,14.74
2022-08-22T05:18:05.499Z,14.81
2022-08-22T05:20:34.864Z,14.96
2022-08-22T05:23:17.388Z,15.15
2022-08-22T05:25:47.262Z,15.31
2022-08-22T05:28:33.069Z,15.40
2022-08-22T05:31:02.603Z,15.58
2022-08-22T05:33:51.337Z,15.89
2022-08-22T05:36:25.371Z,16.10
2022-08-22T05:39:00.673Z,16.43
2022-08-22T05:41:32.707Z,16.58
2022-08-22T05:43:59.634Z,16.76
2022-08-22T05:46:41.781Z,16.88
2022-08-22T05:49:35.113Z,17.14
2022-08-22T05:52:24.894Z,17.74
2022-08-22T05:55:10.369Z,18.38
2022-08-22T05:57:41.693Z,18.58
2022-08-22T06:00:12.419Z,18.63
2022-08-22T06:03:09.407Z,18.48
2022-08-22T06:05:40.500Z,18.30
2022-08-22T06:08:35.321Z,18.15
2022-08-22T06:11:32.773Z,18.11
2022-08-22T06:14:28.703Z,18.01
2022-08-22T06:17:09.064Z,18.03
2022-08-22T06:19:40.101Z,17.98
2022-08-22T06:22:07.485Z,17.97
2022-08-22T06:24:37.058Z,18.11
2022-08-22T06:27:08.999Z,18.19
2022-08-22T06:29:41.058Z,18.29
2022-08-22T06:32:17.330Z,18.41
2022-08-22T06:35:09.111Z,18.45
2022-08-22T06:37:40.062Z,18.47
2022-08-22T06:40:10.714Z,18.46
2022-08-22T06:42:42.743Z,18.45
2022-08-22T06:45:31.211Z,18.47
2022-08-22T06:48:07.152Z,18.42
2022-08-22T06:50:39.866Z,18.54
2022-08-22T06:53:20.015Z,18.57
2022-08-22T06:55:53.786Z,18.69
2022-08-22T06:58:34.877Z,18.82
2022-08-22T07:01:23.585Z,19.17
2022-08-22T07:03:53.918Z,19.54
2022-08-22T07:06:35.059Z,20.61
2022-08-22T07:09:06.234Z,20.72
2022-08-22T07:11:41.614Z,20.98
2022-08-22T07:14:11.124Z,23.11
2022-08-22T07:16:44.229Z,27.17
2022-08-22T07:19:24.845Z,30.74
2022-08-22T07:21:52.245Z,32.93
2022-08-22T07:24:24.697Z,34.63
2022-08-22T07:27:08.104Z,35.66
2022-08-22T07:29:40.643Z,36.91
2022-08-22T07:32:20.277Z,37.63
2022-08-22T07:34:58.753Z,38.16
2022-08-22T07:37:46.515Z,37.51
2022-08-22T07:40:28.711Z,37.39
2022-08-22T07:43:01.271Z,38.04
2022-08-22T07:45:36.869Z,38.70
2022-08-22T07:48:25.857Z,38.61
2022-08-22T07:51:01.830Z,37.76
2022-08-22T07:53:30.543Z,36.82
2022-08-22T07:55:59.851Z,37.24
2022-08-22T07:58:29.609Z,37.27
2022-08-22T08:00:58.019Z,38.53
2022-08-22T08:03:27.729Z,39.14
2022-08-22T08:05:55.120Z,39.29
2022-08-22T08:08:27.772Z,37.59
2022-08-22T08:10:57.306Z,37.07
2022-08-22T08:13:30.423Z,35.45
2022-08-22T08:16:00.025Z,36.69
2022-08-22T08:18:28.243Z,37.57
2022-08-22T08:20:59.558Z,36.52
2022-08-22T08:23:30.942Z,37.79
2022-08-22T08:26:08.440Z,38.69
2022-08-22T08:28:41.559Z,39.16
2022-08-22T08:31:18.177Z,38.85
2022-08-22T08:33:48.582Z,38.35
2022-08-22T08:36:36.766Z,38.99
2022-08-22T08:39:10.915Z,38.68
2022-08-22T08:41:51.293Z,39.02
2022-08-22T08:44:33.809Z,39.21
2022-08-22T08:47:15.265Z,39.17
2022-08-22T08:49:53.747Z,38.05
2022-08-22T08:52:38.747Z,36.90
2022-08-22T08:55:16.016Z,35.84
2022-08-22T08:58:27.745Z,37.52
2022-08-22T09:01:32.884Z,37.11
2022-08-22T09:04:21.432Z,34.92
2022-08-22T09:07:18.769Z,37.28
2022-08-22T09:10:13.223Z,37.31
2022-08-22T09:13:11.259Z,36.99
2022-08-22T09:16:07.267Z,37.67
2022-08-22T09:20:19.555Z,39.16
2022-08-22T09:22:15.018Z,39.27
2022-08-22T09:28:17.264Z,38.49
2022-08-22T09:31:33.261Z,40.18
2022-08-22T09:35:47.533Z,38.57
2022-08-22T09:38:47.839Z,38.63
2022-08-22T09:41:11.168Z,38.62
2022-08-22T09:44:04.669Z,37.37
2022-08-22T09:47:06.756Z,37.91
2022-08-22T09:49:52.201Z,39.17
2022-08-22T09:52:50.383Z,38.28
2022-08-22T09:55:44.937Z,38.39
2022-08-22T09:58:32.752Z,37.75
2022-08-22T10:01:12.503Z,37.83
2022-08-22T10:04:06.683Z,38.03
2022-08-22T10:07:11.166Z,38.57
2022-08-22T10:09:38.349Z,38.45
2022-08-22T10:12:12.860Z,39.11
2022-08-22T10:15:21.090Z,39.52
2022-08-22T10:18:33.854Z,40.20
2022-08-22T10:21:11.973Z,37.77
2022-08-22T10:23:48.183Z,38.55
2022-08-22T10:26:37.942Z,38.03
2022-08-22T10:29:48.228Z,37.91
2022-08-22T10:32:28.291Z,38.78
2022-08-22T10:34:58.987Z,38.06
2022-08-22T10:37:36.444Z,38.26
2022-08-22T10:40:15.943Z,38.54
2022-08-22T10:42:53.677Z,39.72
2022-08-22T10:45:36.135Z,39.37
2022-08-22T10:48:08.840Z,38.44
2022-08-22T10:50:50.498Z,36.68
2022-08-22T10:53:31.775Z,37.76
2022-08-22T10:56:23.609Z,38.24
2022-08-22T10:59:18.698Z,38.25
2022-08-22T11:01:59.261Z,38.37
2022-08-22T11:04:54.552Z,38.23
2022-08-22T11:07:42.545Z,38.63
2022-08-22T11:11:08.262Z,37.98
2022-08-22T11:14:16.340Z,35.69
2022-08-22T11:17:00.687Z,33.79
2022-08-22T11:19:27.130Z,34.92
2022-08-22T11:22:03.798Z,35.96
2022-08-22T11:25:08.479Z,36.11
2022-08-22T11:28:17.634Z,33.82
2022-08-22T11:31:07.184Z,35.74
2022-08-22T11:33:52.124Z,35.30
2022-08-22T11:36:33.678Z,35.22
2022-08-22T11:39:18.457Z,34.78
2022-08-22T11:42:03.392Z,36.21
2022-08-22T11:44:57.007Z,33.51
2022-08-22T11:47:31.041Z,35.42
2022-08-22T11:50:13.477Z,36.49
2022-08-22T11:52:51.647Z,36.64
2022-08-22T11:55:40.019Z,37.39
2022-08-22T11:58:18.112Z,36.58
2022-08-22T12:01:03.064Z,34.26
2022-08-22T12:03:44.356Z,32.25
2022-08-22T12:06:50.538Z,31.28
2022-08-22T12:09:36.007Z,30.17
2022-08-22T12:12:35.850Z,29.54
2022-08-22T12:15:18.921Z,29.46
2022-08-22T12:18:21.782Z,29.50
2022-08-22T12:20:58.617Z,30.03
2022-08-22T12:23:49.443Z,29.55
2022-08-22T12:26:16.196Z,29.91
2022-08-22T12:29:17.879Z,30.00
2022-08-22T12:32:28.692Z,30.63
2022-08-22T12:35:14.496Z,31.02
2022-08-22T12:37:52.146Z,30.91
2022-08-22T12:40:28.153Z,30.78
2022-08-22T12:43:05.353Z,30.46
2022-08-22T12:45:33.009Z,31.00
2022-08-22T12:48:08.537Z,30.43
2022-08-22T12:50:48.979Z,29.74
2022-08-22T12:53:54.056Z,29.35
2022-08-22T12:56:39.228Z,27.58
2022-08-22T12:59:19.680Z,26.66
2022-08-22T13:01:49.361Z,26.63
2022-08-22T13:04:33.657Z,26.89
2022-08-22T13:07:06.558Z,27.19
2022-08-22T13:09:37.733Z,28.10
2022-08-22T13:12:38.674Z,28.26
2022-08-22T13:15:25.591Z,28.26
2022-08-22T13:17:53.332Z,28.03
2022-08-22T13:20:31.320Z,27.84
2022-08-22T13:23:01.825Z,28.17
2022-08-22T13:25:30.983Z,28.21
2022-08-22T13:28:01.420Z,28.11
2022-08-22T13:30:39.954Z,28.35
2022-08-22T13:33:14.261Z,28.03
2022-08-22T13:35:54.059Z,27.61
2022-08-22T13:38:25.686Z,27.36
2022-08-22T13:40:54.679Z,27.67
2022-08-22T13:43:25.858Z,28.21
2022-08-22T13:46:11.844Z,28.77
2022-08-22T13:48:49.574Z,29.06
2022-08-22T13:51:26.045Z,29.19
2022-08-22T13:54:02.798Z,28.14
2022-08-22T13:56:52.659Z,27.82
2022-08-22T13:59:50.360Z,28.14
2022-08-22T14:02:34.136Z,27.78
2022-08-22T14:05:06.687Z,27.61
2022-08-22T14:07:38.441Z,26.90
2022-08-22T14:10:14.993Z,26.73
2022-08-22T14:12:50.628Z,26.86
2022-08-22T14:15:45.772Z,27.46
2022-08-22T14:18:19.704Z,27.66
2022-08-22T14:20:47.899Z,27.79
2022-08-22T14:23:26.994Z,27.77
2022-08-22T14:25:54.968Z,26.98
2022-08-22T14:28:28.295Z,26.84
2022-08-22T14:31:01.013Z,26.64
2022-08-22T14:33:36.222Z,26.57
2022-08-22T14:36:21.342Z,26.61
2022-08-22T14:39:02.129Z,27.36
2022-08-22T14:41:55.690Z,28.06
2022-08-22T14:44:33.657Z,28.01
2022-08-22T14:47:32.368Z,27.59
2022-08-22T14:49:58.820Z,26.78
2022-08-22T14:52:32.006Z,26.37
2022-08-22T14:55:10.079Z,25.76
2022-08-22T14:57:44.722Z,25.66
2022-08-22T15:00:12.245Z,25.79
2022-08-22T15:02:40.449Z,25.51
2022-08-22T15:05:18.113Z,25.26
2022-08-22T15:07:54.356Z,25.48
2022-08-22T15:10:29.571Z,25.42
2022-08-22T15:13:02.721Z,25.42
2022-08-22T15:15:49.415Z,25.85
2022-08-22T15:18:34.408Z,26.35
2022-08-22T15:21:08.774Z,26.78
2022-08-22T15:23:45.367Z,26.79
2022-08-22T15:26:28.016Z,27.05
2022-08-22T15:29:20.404Z,27.37
2022-08-22T15:31:51.630Z,27.57
2022-08-22T15:34:38.290Z,27.88
2022-08-22T15:37:25.313Z,28.25
2022-08-22T15:40:12.633Z,28.80
2022-08-22T15:42:50.878Z,29.11
2022-08-22T15:45:38.301Z,28.59
2022-08-22T15:48:11.058Z,27.95
2022-08-22T15:50:55.916Z,27.66
2022-08-22T15:53:33.611Z,27.23
2022-08-22T15:56:05.188Z,27.17
2022-08-22T15:58:34.414Z,26.91
2022-08-22T16:01:22.221Z,26.48
2022-08-22T16:03:57.596Z,27.00
2022-08-22T16:07:09.607Z,27.39
2022-08-22T16:09:42.697Z,27.06
2022-08-22T16:12:25.130Z,26.80
2022-08-22T16:14:53.024Z,26.66
2022-08-22T16:17:25.224Z,26.48
2022-08-22T16:20:19.628Z,26.79
2022-08-22T16:22:55.744Z,27.09
2022-08-22T16:25:47.183Z,27.31
2022-08-22T16:28:54.380Z,27.46
2022-08-22T16:31:20.109Z,27.55
2022-08-22T16:33:47.157Z,27.50
2022-08-22T16:36:41.051Z,27.68
2022-08-22T16:39:30.274Z,27.87
2022-08-22T16:42:16.587Z,27.52
2022-08-22T16:44:54.585Z,27.58
2022-08-22T16:47:36.440Z,27.73
2022-08-22T16:50:17.785Z,27.62
2022-08-22T16:52:52.987Z,27.62
2022-08-22T16:55:41.814Z,27.54
2022-08-22T16:58:57.019Z,27.52
2022-08-22T17:01:39.740Z,27.35
2022-08-22T17:04:39.168Z,27.18
2022-08-22T17:07:43.010Z,27.02
2022-08-22T17:10:22.380Z,26.89
2022-08-22T17:13:26.545Z,26.71
2022-08-22T17:16:02.610Z,26.76
2022-08-22T17:18:55.172Z,26.59
2022-08-22T17:21:42.124Z,26.46
2022-08-22T17:24:33.929Z,26.39
2022-08-22T17:27:15.025Z,26.37
2022-08-22T17:29:56.595Z,26.25
2022-08-22T17:32:41.058Z,26.17
2022-08-22T17:35:23.570Z,25.95
2022-08-22T17:38:01.239Z,25.74
2022-08-22T17:40:36.852Z,25.44
2022-08-22T17:43:13.092Z,25.21
2022-08-22T17:46:03.340Z,24.94
2022-08-22T17:48:45.204Z,24.72
2022-08-22T17:51:43.710Z,24.52
2022-08-22T17:54:29.472Z,24.32
2022-08-22T17:57:05.758Z,24.17
2022-08-22T17:59:39.778Z,24.08
2022-08-22T18:02:15.529Z,23.84
2022-08-22T18:04:50.370Z,23.67
2022-08-22T18:07:36.146Z,23.61
2022-08-22T18:10:14.600Z,23.50
2022-08-22T18:13:07.086Z,23.38
2022-08-22T18:15:42.809Z,23.23
2022-08-22T18:18:30.363Z,23.10
2022-08-22T18:21:05.657Z,23.01
2022-08-22T18:23:51.832Z,22.92
2022-08-22T18:26:37.235Z,22.73
2022-08-22T18:29:14.479Z,22.54
2022-08-22T18:31:47.058Z,22.41
2022-08-22T18:34:18.556Z,22.27
2022-08-22T18:37:35.369Z,22.14
2022-08-22T18:40:13.091Z,21.91
2022-08-22T18:42:44.877Z,21.78
2022-08-22T18:45:43.992Z,21.64
2022-08-22T18:48:22.181Z,21.45
2022-08-22T18:50:49.307Z,21.24
2022-08-22T18:53:37.043Z,21.24
2022-08-22T18:56:16.326Z,21.13
2022-08-22T18:59:35.700Z,21.34
2022-08-22T19:02:14.015Z,21.86
2022-08-22T19:04:40.373Z,22.00
2022-08-22T19:07:18.977Z,21.52
2022-08-22T19:10:07.387Z,21.26
2022-08-22T19:13:02.034Z,21.08
2022-08-22T19:15:49.496Z,20.90
2022-08-22T19:18:28.055Z,20.72
2022-08-22T19:21:34.634Z,20.61
2022-08-22T19:24:07.843Z,20.41
2022-08-22T19:26:36.411Z,20.37
2022-08-22T19:29:25.608Z,20.27
2022-08-22T19:31:53.311Z,20.17
2022-08-22T19:34:25.722Z,20.12
2022-08-22T19:37:30.920Z,20.00
2022-08-22T19:40:07.341Z,19.87
2022-08-22T19:42:36.646Z,19.80
2022-08-22T19:45:06.092Z,19.77
2022-08-22T19:47:40.764Z,19.84
2022-08-22T19:50:16.497Z,19.77
2022-08-22T19:53:02.527Z,19.64
2022-08-22T19:55:37.976Z,19.56
2022-08-22T19:58:32.069Z,19.52
2022-08-22T20:01:03.955Z,19.42
2022-08-22T20:03:40.974Z,19.35
2022-08-22T20:06:44.058Z,19.35
2022-08-22T20:09:47.759Z,19.76
2022-08-22T20:12:31.409Z,20.25
2022-08-22T20:15:11.994Z,20.37
2022-08-22T20:17:41.649Z,20.08
2022-08-22T20:20:37.228Z,19.85
2022-08-22T20:23:14.705Z,19.66
2022-08-22T20:25:44.445Z,19.52
2022-08-22T20:28:37.805Z,19.40
2022-08-22T20:31:11.874Z,19.24
2022-08-22T20:33:42.521Z,19.29
2022-08-22T20:36:27.724Z,19.18
2022-08-22T20:39:06.948Z,19.61
2022-08-22T20:41:41.740Z,19.31
2022-08-22T20:44:28.786Z,19.31
2022-08-22T20:47:02.093Z,19.20
2022-08-22T20:49:50.242Z,18.99
2022-08-22T20:52:19.596Z,18.90
2022-08-22T20:54:59.289Z,18.79
2022-08-22T20:57:25.777Z,18.69
2022-08-22T21:00:05.333Z,19.05
2022-08-22T21:02:43.521Z,18.84
2022-08-22T21:05:13.091Z,18.70
2022-08-22T21:07:42.700Z,18.64
2022-08-22T21:10:28.590Z,18.58
2022-08-22T21:13:10.309Z,18.47
2022-08-22T21:15:43.647Z,18.40
2022-08-22T21:18:12.825Z,18.44
2022-08-22T21:20:39.800Z,18.47
2022-08-22T21:23:13.000Z,18.41
2022-08-22T21:25:57.515Z,18.38
2022-08-22T21:28:34.273Z,18.29
2022-08-22T21:31:09.360Z,18.31
2022-08-22T21:33:40.818Z,18.26
2022-08-22T21:36:10.741Z,18.21
2022-08-22T21:38:39.200Z,18.10
2022-08-22T21:41:05.936Z,18.09
2022-08-22T21:43:38.574Z,18.06
2022-08-22T21:46:06.948Z,18.00
2022-08-22T21:48:57.595Z,17.97
2022-08-22T21:51:44.739Z,17.92
2022-08-22T21:54:26.462Z,17.86
2022-08-22T21:56:56.305Z,17.86
2022-08-22T21:59:51.208Z,17.85
2022-08-22T22:02:36.781Z,17.78
2022-08-22T22:05:14.722Z,17.83
2022-08-22T22:07:43.375Z,17.78
2022-08-22T22:10:13.653Z,17.79
2022-08-22T22:12:42.847Z,17.70
2022-08-22T22:15:13.897Z,17.71
2022-08-22T22:17:40.398Z,17.68
2022-08-22T22:20:07.538Z,17.60
2022-08-22T22:22:33.973Z,17.62
2022-08-22T22:25:04.580Z,17.61
2022-08-22T22:27:31.667Z,17.63
2022-08-22T22:29:58.130Z,17.61
2022-08-22T22:32:24.675Z,17.55
2022-08-22T22:34:51.142Z,17.52
2022-08-22T22:37:17.972Z,17.51
2022-08-22T22:39:44.524Z,17.51
2022-08-22T22:42:11.007Z,17.42
2022-08-22T22:44:37.484Z,17.39
2022-08-22T22:47:04.290Z,17.38
2022-08-22T22:49:32.351Z,17.37
2022-08-22T22:52:01.921Z,17.32
2022-08-22T22:54:29.784Z,17.30
2022-08-22T22:56:56.329Z,17.27
2022-08-22T22:59:25.671Z,17.26
2022-08-22T23:04:37.943Z,17.19
2022-08-22T23:07:06.376Z,17.27
2022-08-22T23:09:38.761Z,17.56
2022-08-22T23:12:12.832Z,17.44
2022-08-22T23:14:39.368Z,17.35
2022-08-22T23:17:06.040Z,17.30
2022-08-22T23:19:32.733Z,17.24
2022-08-22T23:22:01.027Z,17.18
2022-08-22T23:24:29.329Z,17.14
2022-08-22T23:26:56.222Z,17.12
2022-08-22T23:29:23.481Z,17.10
2022-08-22T23:32:01.681Z,17.09
2022-08-22T23:34:47.433Z,17.02
2022-08-22T23:37:17.993Z,16.97
2022-08-22T23:39:44.751Z,16.93
2022-08-22T23:42:12.331Z,16.90
2022-08-22T23:44:40.863Z,16.88
2022-08-22T23:47:09.462Z,16.88
2022-08-22T23:49:37.261Z,16.85
2022-08-22T23:52:05.245Z,16.84
2022-08-22T23:54:31.832Z,16.84
2022-08-22T23:57:00.744Z,16.80
2022-08-22T23:59:34.131Z,16.77
